createdAt,value
2019-02-05T00:00:35.511Z,5.77
2019-02-05T00:05:41.343Z,5.27
2019-02-05T00:10:47.928Z,5.77
2019-02-05T00:15:53.759Z,5.50
2019-02-05T00:20:59.930Z,6.10
2019-02-05T00:26:06.608Z,5.70
2019-02-05T00:31:11.660Z,5.57
2019-02-05T00:36:17.184Z,5.80
2019-02-05T00:41:22.671Z,5.73
2019-02-05T00:46:28.702Z,5.20
2019-02-05T00:51:34.319Z,5.90
2019-02-05T00:56:39.803Z,5.60
2019-02-05T01:01:46.003Z,6.50
2019-02-05T01:06:52.035Z,5.80
2019-02-05T01:11:57.873Z,5.20
2019-02-05T01:17:04.083Z,5.53
2019-02-05T01:22:09.955Z,7.20
2019-02-05T01:27:16.179Z,5.60
2019-02-05T01:32:21.663Z,5.83
2019-02-05T01:37:27.164Z,5.13
2019-02-05T01:42:33.007Z,4.83
2019-02-05T01:47:39.084Z,5.53
2019-02-05T01:52:44.565Z,5.33
2019-02-05T01:57:50.167Z,5.87
2019-02-05T02:02:55.711Z,5.50
2019-02-05T02:08:01.848Z,5.53
2019-02-05T02:13:07.317Z,4.80
2019-02-05T02:18:12.788Z,5.60
2019-02-05T02:23:18.631Z,5.37
2019-02-05T02:28:24.514Z,5.67
2019-02-05T02:33:30.340Z,5.60
2019-02-05T02:38:36.166Z,4.97
2019-02-05T02:43:41.663Z,5.60
2019-02-05T02:48:47.503Z,5.80
2019-02-05T02:53:53.636Z,5.27
2019-02-05T02:58:59.105Z,4.90
2019-02-05T03:04:04.994Z,5.10
2019-02-05T03:09:10.951Z,6.07
2019-02-05T03:14:16.428Z,5.20
2019-02-05T03:19:21.980Z,4.60
2019-02-05T03:24:27.860Z,5.57
2019-02-05T03:29:33.335Z,5.50
2019-02-05T03:34:39.138Z,5.30
2019-02-05T03:39:45.288Z,5.07
2019-02-05T03:44:51.339Z,5.27
2019-02-05T03:49:56.903Z,5.20
2019-02-05T03:55:16.011Z,5.63
2019-02-05T04:00:42.668Z,5.13
2019-02-05T04:06:08.451Z,4.90
2019-02-05T04:11:43.012Z,5.27
2019-02-05T04:17:40.812Z,4.63
2019-02-05T04:23:05.710Z,4.67
2019-02-05T04:28:42.331Z,5.00
2019-02-05T04:34:06.275Z,5.17
2019-02-05T04:39:43.584Z,4.80
2019-02-05T04:46:04.493Z,5.33
2019-02-05T04:52:29.737Z,5.03
2019-02-05T04:57:57.446Z,5.37
2019-02-05T05:03:11.130Z,4.77
2019-02-05T05:08:34.501Z,5.27
2019-02-05T05:13:40.679Z,5.43
2019-02-05T05:18:46.142Z,5.00
2019-02-05T05:23:51.763Z,4.93
2019-02-05T05:28:57.632Z,5.80
2019-02-05T05:34:03.445Z,5.77
2019-02-05T05:39:09.807Z,6.20
2019-02-05T05:44:15.293Z,6.17
2019-02-05T05:49:21.097Z,6.47
2019-02-05T05:54:26.591Z,5.90
2019-02-05T05:59:32.046Z,6.80
2019-02-05T06:04:38.222Z,6.47
2019-02-05T06:09:43.984Z,6.97
2019-02-05T06:14:49.554Z,6.70
2019-02-05T06:19:55.387Z,6.97
2019-02-05T06:25:01.290Z,6.17
2019-02-05T06:30:08.503Z,6.13
2019-02-05T06:35:13.994Z,6.50
2019-02-05T06:40:19.495Z,5.87
2019-02-05T06:45:24.955Z,6.40
2019-02-05T06:50:30.766Z,6.60
2019-02-05T06:55:36.656Z,6.07
2019-02-05T07:00:42.835Z,5.40
2019-02-05T07:05:48.745Z,5.73
2019-02-05T07:10:54.483Z,6.93
2019-02-05T07:16:00.354Z,5.93
2019-02-05T07:21:06.584Z,5.43
2019-02-05T07:26:12.079Z,6.30
2019-02-05T07:31:17.996Z,4.60
2019-02-05T07:36:24.103Z,5.63
2019-02-05T07:41:29.555Z,5.70
2019-02-05T07:46:35.643Z,4.60
2019-02-05T07:51:41.135Z,5.77
2019-02-05T07:56:46.920Z,6.27
2019-02-05T08:01:52.936Z,5.77
2019-02-05T08:06:58.451Z,5.67
2019-02-05T08:12:04.086Z,5.90
2019-02-05T08:17:10.415Z,5.33
2019-02-05T08:22:16.264Z,5.83
2019-02-05T08:27:22.126Z,6.17
2019-02-05T08:32:28.472Z,5.53
2019-02-05T08:37:34.012Z,5.87
2019-02-05T08:42:39.482Z,6.27
2019-02-05T08:47:45.303Z,6.00
2019-02-05T08:52:50.996Z,6.27
2019-02-05T08:58:03.147Z,5.83
2019-02-05T09:03:10.428Z,6.17
2019-02-05T09:08:15.947Z,6.57
2019-02-05T09:13:22.543Z,6.30
2019-02-05T09:18:28.055Z,6.30
2019-02-05T09:23:33.679Z,6.17
2019-02-05T09:28:40.184Z,6.37
2019-02-05T09:33:46.437Z,6.47
2019-02-05T09:38:52.622Z,7.80
2019-02-05T09:43:58.472Z,6.80
2019-02-05T09:49:04.723Z,7.07
2019-02-05T09:54:10.614Z,7.40
2019-02-05T09:59:16.574Z,6.87
2019-02-05T10:04:22.430Z,7.70
2019-02-05T10:09:27.896Z,8.40
2019-02-05T10:14:34.203Z,7.80
2019-02-05T10:19:39.728Z,7.03
2019-02-05T10:24:45.819Z,7.43
2019-02-05T10:29:57.860Z,7.60
2019-02-05T10:34:57.823Z,8.63
2019-02-05T10:40:03.514Z,8.00
2019-02-05T10:45:10.783Z,8.60
2019-02-05T10:50:17.321Z,9.10
2019-02-05T10:55:22.892Z,9.17
2019-02-05T11:00:30.383Z,8.70
2019-02-05T11:05:36.230Z,8.30
2019-02-05T11:10:42.263Z,8.57
2019-02-05T11:15:47.840Z,9.67
2019-02-05T11:20:54.036Z,8.70
2019-02-05T11:25:59.795Z,9.23
2019-02-05T11:31:05.257Z,8.53
2019-02-05T11:36:11.476Z,9.53
2019-02-05T11:41:17.402Z,8.47
2019-02-05T11:46:23.914Z,9.77
2019-02-05T11:51:29.479Z,9.03
2019-02-05T11:56:35.298Z,9.63
2019-02-05T12:01:40.995Z,9.13
2019-02-05T12:06:46.865Z,9.47
2019-02-05T12:11:52.440Z,9.17
2019-02-05T12:16:58.744Z,9.60
2019-02-05T12:22:04.614Z,9.77
2019-02-05T12:27:10.580Z,10.07
2019-02-05T12:32:16.982Z,10.00
2019-02-05T12:37:24.211Z,9.47
2019-02-05T12:42:30.714Z,9.53
2019-02-05T12:47:36.310Z,10.47
2019-02-05T12:52:41.936Z,10.00
2019-02-05T12:57:48.072Z,9.97
2019-02-05T13:02:54.674Z,10.63
2019-02-05T13:08:01.064Z,9.80
2019-02-05T13:13:08.524Z,10.03
2019-02-05T13:18:15.098Z,9.97
2019-02-05T13:23:21.074Z,10.27
2019-02-05T13:28:26.986Z,9.67
2019-02-05T13:33:32.455Z,10.10
2019-02-05T13:38:38.265Z,9.90
2019-02-05T13:43:44.146Z,11.63
2019-02-05T13:48:50.027Z,10.30
2019-02-05T13:53:55.599Z,10.20
2019-02-05T13:59:01.555Z,10.77
2019-02-05T14:04:07.109Z,9.60
2019-02-05T14:09:14.067Z,10.17
2019-02-05T14:14:19.969Z,11.73
2019-02-05T14:19:25.426Z,10.43
2019-02-05T14:24:30.946Z,10.37
2019-02-05T14:29:36.787Z,10.47
2019-02-05T14:34:42.618Z,10.43
2019-02-05T14:39:48.982Z,10.10
2019-02-05T14:44:53.632Z,10.90
2019-02-05T14:49:59.290Z,10.67
2019-02-05T14:55:04.946Z,11.20
2019-02-05T15:00:15.926Z,11.10
2019-02-05T15:05:21.447Z,10.70
2019-02-05T15:10:26.939Z,11.53
2019-02-05T15:15:33.149Z,10.63
2019-02-05T15:20:42.440Z,10.67
2019-02-05T15:25:48.061Z,10.17
2019-02-05T15:30:53.560Z,11.23
2019-02-05T15:36:01.617Z,10.30
2019-02-05T15:41:07.607Z,10.70
2019-02-05T15:46:13.811Z,11.57
2019-02-05T15:51:19.673Z,10.60
2019-02-05T15:56:25.391Z,11.53
2019-02-05T16:01:31.308Z,11.27
2019-02-05T16:06:37.487Z,12.70
2019-02-05T16:11:42.953Z,10.83
2019-02-05T16:16:48.853Z,14.50
2019-02-05T16:21:54.737Z,12.70
2019-02-05T16:27:00.551Z,13.47
2019-02-05T16:32:17.090Z,13.87
2019-02-05T16:37:12.756Z,13.57
2019-02-05T16:42:18.645Z,13.10
2019-02-05T16:47:24.110Z,12.80
2019-02-05T16:52:29.941Z,15.43
2019-02-05T16:57:35.473Z,16.03
2019-02-05T17:02:41.679Z,14.37
2019-02-05T17:07:47.889Z,14.07
2019-02-05T17:12:54.049Z,12.80
2019-02-05T17:18:00.706Z,13.73
2019-02-05T17:23:06.199Z,13.20
2019-02-05T17:28:12.079Z,13.47
2019-02-05T17:33:18.294Z,14.27
2019-02-05T17:38:25.616Z,14.33
2019-02-05T17:43:29.819Z,14.53
2019-02-05T17:48:35.639Z,14.80
2019-02-05T17:53:41.205Z,15.60
2019-02-05T17:58:47.043Z,13.17
2019-02-05T18:03:52.883Z,13.77
2019-02-05T18:08:58.442Z,13.60
2019-02-05T18:14:04.275Z,14.77
2019-02-05T18:19:09.815Z,14.10
2019-02-05T18:24:15.322Z,12.30
2019-02-05T18:29:21.131Z,12.87
2019-02-05T18:34:27.646Z,11.20
2019-02-05T18:39:33.842Z,10.03
2019-02-05T18:44:39.994Z,11.30
2019-02-05T18:49:45.771Z,10.73
2019-02-05T18:54:51.344Z,10.73
2019-02-05T18:59:57.528Z,10.33
2019-02-05T19:05:02.910Z,10.50
2019-02-05T19:10:09.276Z,9.17
2019-02-05T19:15:18.859Z,9.27
2019-02-05T19:20:27.021Z,9.67
2019-02-05T19:26:08.817Z,10.07
2019-02-05T19:31:24.851Z,9.67
2019-02-05T19:36:30.329Z,10.63
2019-02-05T19:41:36.319Z,10.90
2019-02-05T19:47:01.514Z,11.27
2019-02-05T19:52:07.710Z,11.50
2019-02-05T19:57:13.875Z,11.53
2019-02-05T20:02:20.205Z,12.13
2019-02-05T20:07:26.002Z,13.53
2019-02-05T20:12:32.213Z,13.23
2019-02-05T20:17:38.412Z,12.53
2019-02-05T20:22:44.610Z,13.10
2019-02-05T20:27:50.271Z,13.17
2019-02-05T20:32:56.504Z,12.50
2019-02-05T20:38:02.031Z,14.07
2019-02-05T20:43:07.564Z,13.00
2019-02-05T20:48:13.014Z,14.87
2019-02-05T20:53:18.822Z,14.37
2019-02-05T20:58:24.776Z,13.67
2019-02-05T21:03:30.551Z,14.33
2019-02-05T21:08:36.003Z,14.33
2019-02-05T21:13:41.441Z,14.87
2019-02-05T21:18:47.224Z,14.50
2019-02-05T21:23:52.850Z,13.47
2019-02-05T21:28:58.660Z,15.13
2019-02-05T21:34:14.843Z,13.90
2019-02-05T21:39:11.725Z,13.27
2019-02-05T21:44:17.560Z,13.23
2019-02-05T21:49:23.040Z,13.43
2019-02-05T21:54:29.219Z,13.40
2019-02-05T21:59:34.675Z,13.03
2019-02-05T22:04:40.870Z,13.50
2019-02-05T22:09:47.033Z,13.03
2019-02-05T22:14:53.092Z,14.53
2019-02-05T22:19:58.741Z,13.43
2019-02-05T22:25:07.830Z,12.90
2019-02-05T22:30:19.059Z,13.33
2019-02-05T22:35:24.957Z,14.37
2019-02-05T22:40:31.025Z,12.87
2019-02-05T22:45:37.012Z,13.07
2019-02-05T22:50:42.878Z,13.50
2019-02-05T22:55:48.874Z,12.60
2019-02-05T23:01:11.898Z,13.07
2019-02-05T23:06:33.286Z,12.53
2019-02-05T23:12:00.519Z,11.97
2019-02-05T23:17:06.080Z,12.93
2019-02-05T23:22:11.614Z,12.50
2019-02-05T23:27:17.480Z,12.57
2019-02-05T23:32:23.328Z,12.43
2019-02-05T23:37:28.914Z,12.20
2019-02-05T23:42:35.046Z,12.10
2019-02-05T23:47:40.935Z,12.17
2019-02-05T23:52:46.446Z,12.23
2019-02-05T23:57:51.931Z,12.17
